createdAt,value
2023-04-01T00:01:00.573Z,83.53
2023-04-01T00:03:30.202Z,83.27
2023-04-01T00:06:00.635Z,83.13
2023-04-01T00:08:29.050Z,83.47
2023-04-01T00:10:58.283Z,83.47
2023-04-01T00:13:28.878Z,83.53
2023-04-01T00:15:57.573Z,83.48
2023-04-01T00:18:26.605Z,83.54
2023-04-01T00:20:55.062Z,83.62
2023-04-01T00:23:22.840Z,83.56
2023-04-01T00:25:51.823Z,83.86
2023-04-01T00:28:21.332Z,83.88
2023-04-01T00:30:49.242Z,83.39
2023-04-01T00:33:17.808Z,83.51
2023-04-01T00:35:45.960Z,83.83
2023-04-01T00:38:14.564Z,83.65
2023-04-01T00:40:45.718Z,83.27
2023-04-01T00:43:20.574Z,83.45
2023-04-01T00:45:50.994Z,83.43
2023-04-01T00:48:23.557Z,83.19
2023-04-01T00:51:08.976Z,82.85
2023-04-01T00:53:42.951Z,83.13
2023-04-01T00:56:23.475Z,83.30
2023-04-01T00:59:09.628Z,83.21
2023-04-01T01:01:38.193Z,83.40
2023-04-01T01:04:06.734Z,83.42
2023-04-01T01:06:46.092Z,83.21
2023-04-01T01:09:25.738Z,83.25
2023-04-01T01:12:15.617Z,83.44
2023-04-01T01:14:49.233Z,83.17
2023-04-01T01:17:30.499Z,83.19
2023-04-01T01:20:26.501Z,82.97
2023-04-01T01:23:06.943Z,83.09
2023-04-01T01:25:56.945Z,83.33
2023-04-01T01:28:49.509Z,83.16
2023-04-01T01:31:46.207Z,83.44
2023-04-01T01:34:37.498Z,83.06
2023-04-01T01:37:18.538Z,83.01
2023-04-01T01:39:55.579Z,83.12
2023-04-01T01:42:28.073Z,83.18
2023-04-01T01:45:01.189Z,82.94
2023-04-01T01:47:31.140Z,82.78
2023-04-01T01:50:00.609Z,82.56
2023-04-01T01:52:30.649Z,82.93
2023-04-01T01:54:59.911Z,83.01
2023-04-01T01:57:40.373Z,82.55
2023-04-01T02:00:16.578Z,82.27
2023-04-01T02:02:49.274Z,82.62
2023-04-01T02:05:30.145Z,82.27
2023-04-01T02:08:14.033Z,82.50
2023-04-01T02:10:49.213Z,82.04
2023-04-01T02:13:51.460Z,82.30
2023-04-01T02:16:40.321Z,82.39
2023-04-01T02:19:10.716Z,82.82
2023-04-01T02:21:41.088Z,82.89
2023-04-01T02:24:15.112Z,83.04
2023-04-01T02:26:44.093Z,83.12
2023-04-01T02:29:14.359Z,83.43
2023-04-01T02:31:44.769Z,83.55
2023-04-01T02:34:13.589Z,83.38
2023-04-01T02:36:41.480Z,83.16
2023-04-01T02:39:10.421Z,83.23
2023-04-01T02:41:43.735Z,83.27
2023-04-01T02:44:13.886Z,83.50
2023-04-01T02:46:42.123Z,83.64
2023-04-01T02:49:10.043Z,83.83
2023-04-01T02:51:38.158Z,84.22
2023-04-01T02:54:06.124Z,83.97
2023-04-01T02:56:33.915Z,84.33
2023-04-01T02:59:01.887Z,84.45
2023-04-01T03:01:29.733Z,84.62
2023-04-01T03:03:57.592Z,84.52
2023-04-01T03:06:25.473Z,84.48
2023-04-01T03:08:53.303Z,84.26
2023-04-01T03:11:22.244Z,83.95
2023-04-01T03:13:50.401Z,83.98
2023-04-01T03:16:18.227Z,84.33
2023-04-01T03:18:46.003Z,84.32
2023-04-01T03:21:15.564Z,84.33
2023-04-01T03:23:43.669Z,84.34
2023-04-01T03:26:11.664Z,83.93
2023-04-01T03:28:39.570Z,83.96
2023-04-01T03:31:08.474Z,83.99
2023-04-01T03:33:43.423Z,84.07
2023-04-01T03:36:13.404Z,84.15
2023-04-01T03:38:42.589Z,84.45
2023-04-01T03:41:17.797Z,84.30
2023-04-01T03:43:46.325Z,84.39
2023-04-01T03:46:20.325Z,84.28
2023-04-01T03:48:48.861Z,84.16
2023-04-01T03:51:16.676Z,84.46
2023-04-01T03:53:44.720Z,84.40
2023-04-01T03:56:13.389Z,84.46
2023-04-01T03:58:41.138Z,84.48
2023-04-01T04:01:24.443Z,84.34
2023-04-01T04:03:56.414Z,84.24
2023-04-01T04:06:29.572Z,84.41
2023-04-01T04:08:57.732Z,84.62
2023-04-01T04:11:25.656Z,84.52
2023-04-01T04:13:56.012Z,84.44
2023-04-01T04:16:25.107Z,84.44
2023-04-01T04:18:58.667Z,84.75
2023-04-01T04:21:26.471Z,84.64
2023-04-01T04:23:54.274Z,84.74
2023-04-01T04:26:22.784Z,84.59
2023-04-01T04:28:57.273Z,84.74
2023-04-01T04:31:26.954Z,84.89
2023-04-01T04:33:56.953Z,85.07
2023-04-01T04:36:24.805Z,85.10
2023-04-01T04:38:54.062Z,85.27
2023-04-01T04:41:23.367Z,85.03
2023-04-01T04:43:55.804Z,85.09
2023-04-01T04:46:25.476Z,85.06
2023-04-01T04:49:00.767Z,84.95
2023-04-01T04:51:28.564Z,85.00
2023-04-01T04:53:56.620Z,85.11
2023-04-01T04:56:36.999Z,84.97
2023-04-01T04:59:08.262Z,84.79
2023-04-01T05:01:49.265Z,84.74
2023-04-01T05:04:17.396Z,84.97
2023-04-01T05:06:46.258Z,85.01
2023-04-01T05:09:16.321Z,84.92
2023-04-01T05:11:44.284Z,85.04
2023-04-01T05:14:17.339Z,85.13
2023-04-01T05:16:55.489Z,85.16
2023-04-01T05:19:23.616Z,85.20
2023-04-01T05:21:51.875Z,85.10
2023-04-01T05:24:19.689Z,85.20
2023-04-01T05:26:48.247Z,85.05
2023-04-01T05:29:16.062Z,85.15
2023-04-01T05:31:46.120Z,85.29
2023-04-01T05:34:15.972Z,85.17
2023-04-01T05:36:46.010Z,84.72
2023-04-01T05:39:16.579Z,84.80
2023-04-01T05:41:46.111Z,85.11
2023-04-01T05:44:14.835Z,85.26
2023-04-01T05:46:43.188Z,84.86
2023-04-01T05:49:22.797Z,85.02
2023-04-01T05:51:52.571Z,84.45
2023-04-01T05:54:21.603Z,84.81
2023-04-01T05:56:49.596Z,84.87
2023-04-01T05:59:18.885Z,84.80
2023-04-01T06:01:46.617Z,84.89
2023-04-01T06:04:19.810Z,84.81
2023-04-01T06:06:47.889Z,84.78
2023-04-01T06:09:19.786Z,84.83
2023-04-01T06:12:09.033Z,85.09
2023-04-01T06:15:00.738Z,84.98
2023-04-01T06:17:46.852Z,84.67
2023-04-01T06:20:44.262Z,84.75
2023-04-01T06:23:37.161Z,84.80
2023-04-01T06:26:54.443Z,84.53
2023-04-01T06:29:47.967Z,84.86
2023-04-01T06:32:40.469Z,84.81
2023-04-01T06:35:36.444Z,85.06
2023-04-01T06:38:33.864Z,84.84
2023-04-01T06:41:30.926Z,84.75
2023-04-01T06:44:21.019Z,84.42
2023-04-01T06:47:45.622Z,84.64
2023-04-01T06:50:43.402Z,84.52
2023-04-01T06:54:02.928Z,85.15
2023-04-01T06:56:59.604Z,84.91
2023-04-01T06:59:34.516Z,85.08
2023-04-01T07:02:38.976Z,84.91
2023-04-01T07:05:08.826Z,85.10
2023-04-01T07:07:49.818Z,84.85
2023-04-01T07:10:29.492Z,84.73
2023-04-01T07:13:55.430Z,84.35
2023-04-01T07:16:54.584Z,84.53
2023-04-01T07:19:42.732Z,84.40
2023-04-01T07:22:28.475Z,84.24
2023-04-01T07:25:26.906Z,84.60
2023-04-01T07:28:19.643Z,84.53
2023-04-01T07:31:08.475Z,85.02
2023-04-01T07:33:59.222Z,84.79
2023-04-01T07:36:44.421Z,84.91
2023-04-01T07:39:18.578Z,84.67
2023-04-01T07:42:18.552Z,85.12
2023-04-01T07:45:03.059Z,85.17
2023-04-01T07:47:59.122Z,85.08
2023-04-01T07:50:56.253Z,85.09
2023-04-01T07:53:29.979Z,85.34
2023-04-01T07:56:35.190Z,85.15
2023-04-01T07:59:15.009Z,85.18
2023-04-01T08:02:32.269Z,84.83
2023-04-01T08:05:20.864Z,84.64
2023-04-01T08:08:20.425Z,84.74
2023-04-01T08:11:28.882Z,84.47
2023-04-01T08:14:27.145Z,84.61
2023-04-01T08:17:32.010Z,84.82
2023-04-01T08:20:21.795Z,84.50
2023-04-01T08:23:25.981Z,84.67
2023-04-01T08:26:19.341Z,84.59
2023-04-01T08:29:01.628Z,84.63
2023-04-01T08:31:45.537Z,84.87
2023-04-01T08:34:48.624Z,85.21
2023-04-01T08:37:40.228Z,84.78
2023-04-01T08:40:46.236Z,84.69
2023-04-01T08:43:30.783Z,84.63
2023-04-01T08:46:13.936Z,84.70
2023-04-01T08:49:18.031Z,84.70
2023-04-01T08:52:11.783Z,84.95
2023-04-01T08:55:17.258Z,84.99
2023-04-01T08:58:07.404Z,84.98
2023-04-01T09:01:14.845Z,84.79
2023-04-01T09:04:15.621Z,84.51
2023-04-01T09:07:12.825Z,84.52
2023-04-01T09:09:59.383Z,84.65
2023-04-01T09:12:42.121Z,84.56
2023-04-01T09:15:43.278Z,84.62
2023-04-01T09:18:25.275Z,84.36
2023-04-01T09:21:19.095Z,84.41
2023-04-01T09:24:23.156Z,84.02
2023-04-01T09:26:51.353Z,83.86
2023-04-01T09:29:51.512Z,83.71
2023-04-01T09:32:56.518Z,84.05
2023-04-01T09:35:48.628Z,84.06
2023-04-01T09:38:29.777Z,83.89
2023-04-01T09:41:21.518Z,83.45
2023-04-01T09:47:33.422Z,84.24
2023-04-01T09:50:25.798Z,84.68
2023-04-01T09:53:12.759Z,84.39
2023-04-01T09:56:11.532Z,84.33
2023-04-01T09:59:08.131Z,84.17
2023-04-01T10:02:40.160Z,83.94
2023-04-01T10:05:52.947Z,83.83
2023-04-01T10:09:01.219Z,83.92
2023-04-01T10:11:54.299Z,83.55
2023-04-01T10:15:09.268Z,83.69
2023-04-01T10:17:56.032Z,83.69
2023-04-01T10:20:36.441Z,83.51
2023-04-01T10:23:21.452Z,83.86
2023-04-01T10:25:55.321Z,83.36
2023-04-01T10:28:46.024Z,83.56
2023-04-01T10:31:35.598Z,83.88
2023-04-01T10:34:16.291Z,83.59
2023-04-01T10:37:07.285Z,83.61
2023-04-01T10:40:06.765Z,83.37
2023-04-01T10:43:26.943Z,83.50
2023-04-01T10:46:38.669Z,83.43
2023-04-01T10:49:19.099Z,83.78
2023-04-01T10:52:24.958Z,83.16
2023-04-01T10:55:43.233Z,83.25
2023-04-01T10:58:48.533Z,83.28
2023-04-01T11:02:24.538Z,83.71
2023-04-01T11:05:52.501Z,83.60
2023-04-01T11:09:01.681Z,83.41
2023-04-01T11:12:19.161Z,83.70
2023-04-01T11:15:26.167Z,83.50
2023-04-01T11:18:18.141Z,83.60
2023-04-01T11:21:08.651Z,83.76
2023-04-01T11:23:40.025Z,83.53
2023-04-01T11:26:33.149Z,83.28
2023-04-01T11:29:59.107Z,83.42
2023-04-01T11:32:52.035Z,83.43
2023-04-01T11:35:38.798Z,83.47
2023-04-01T11:38:32.430Z,83.49
2023-04-01T11:41:54.749Z,83.28
2023-04-01T11:45:01.858Z,83.16
2023-04-01T11:47:58.072Z,83.13
2023-04-01T11:50:38.888Z,83.15
2023-04-01T11:53:23.058Z,83.01
2023-04-01T11:56:15.787Z,83.09
2023-04-01T11:58:59.075Z,82.89
2023-04-01T12:01:51.167Z,83.11
2023-04-01T12:04:47.243Z,83.59
2023-04-01T12:07:45.949Z,83.17
2023-04-01T12:10:23.101Z,83.35
2023-04-01T12:13:21.117Z,82.88
2023-04-01T12:16:13.601Z,82.62
2023-04-01T12:19:04.493Z,82.91
2023-04-01T12:21:39.887Z,82.80
2023-04-01T12:24:36.586Z,83.00
2023-04-01T12:27:15.336Z,82.94
2023-04-01T12:29:55.001Z,82.91
2023-04-01T12:32:41.066Z,82.73
2023-04-01T12:35:16.674Z,82.60
2023-04-01T12:38:06.810Z,82.75
2023-04-01T12:58:14.802Z,87.16
2023-04-01T13:01:07.366Z,86.31
2023-04-01T13:03:49.811Z,85.40
2023-04-01T13:06:27.288Z,84.53
2023-04-01T13:09:18.270Z,84.95
2023-04-01T13:12:19.073Z,85.10
2023-04-01T13:14:58.729Z,85.02
2023-04-01T13:17:51.592Z,84.87
2023-04-01T13:20:25.282Z,84.92
2023-04-01T13:23:27.295Z,85.37
2023-04-01T13:26:29.855Z,85.13
2023-04-01T13:29:20.297Z,85.04
2023-04-01T13:32:14.050Z,85.08
2023-04-01T13:35:09.841Z,84.78
2023-04-01T13:38:21.427Z,84.59
2023-04-01T13:41:03.529Z,84.75
2023-04-01T13:43:49.404Z,84.68
2023-04-01T13:46:22.974Z,84.34
2023-04-01T13:48:59.665Z,83.90
2023-04-01T13:52:05.231Z,84.52
2023-04-01T13:54:47.662Z,84.36
2023-04-01T13:57:34.070Z,84.71
2023-04-01T14:00:18.094Z,84.83
2023-04-01T14:03:28.355Z,84.58
2023-04-01T14:05:58.824Z,84.79
2023-04-01T14:08:32.757Z,84.64
2023-04-01T14:11:30.825Z,84.98
2023-04-01T14:14:36.367Z,85.39
2023-04-01T14:17:16.346Z,85.54
2023-04-01T14:20:21.067Z,84.97
2023-04-01T14:23:17.066Z,84.82
2023-04-01T14:26:11.962Z,84.46
2023-04-01T14:28:57.227Z,84.73
2023-04-01T14:31:44.207Z,84.18
2023-04-01T14:34:34.010Z,84.35
2023-04-01T14:37:24.503Z,84.29
2023-04-01T14:40:01.359Z,84.67
2023-04-01T14:42:49.557Z,84.38
2023-04-01T14:45:29.648Z,84.57
2023-04-01T14:48:26.523Z,84.41
2023-04-01T14:51:23.699Z,84.42
2023-04-01T14:54:23.726Z,83.96
2023-04-01T14:57:14.816Z,82.83
2023-04-01T14:59:50.907Z,83.75
2023-04-01T15:02:34.227Z,84.29
2023-04-01T15:05:14.128Z,84.17
2023-04-01T15:07:51.170Z,83.99
2023-04-01T15:10:34.500Z,83.68
2023-04-01T15:13:46.073Z,84.26
2023-04-01T15:16:40.230Z,84.25
2023-04-01T15:19:43.947Z,84.27
2023-04-01T15:22:42.994Z,84.33
2023-04-01T15:25:32.705Z,84.43
2023-04-01T15:28:06.602Z,84.45
2023-04-01T15:30:47.650Z,84.43
2023-04-01T15:33:39.779Z,84.06
2023-04-01T15:36:29.539Z,84.31
2023-04-01T15:39:19.688Z,85.00
2023-04-01T15:41:59.624Z,85.20
2023-04-01T15:44:49.256Z,84.59
2023-04-01T15:47:26.441Z,84.59
2023-04-01T15:50:14.960Z,84.27
2023-04-01T15:53:47.801Z,84.48
2023-04-01T15:56:53.900Z,84.77
2023-04-01T15:59:39.802Z,84.86
2023-04-01T16:02:37.268Z,85.14
2023-04-01T16:05:29.230Z,85.21
2023-04-01T16:08:09.159Z,85.17
2023-04-01T16:10:58.807Z,85.22
2023-04-01T16:13:42.644Z,85.53
2023-04-01T16:16:33.086Z,85.43
2023-04-01T16:19:25.498Z,85.75
2023-04-01T16:22:03.306Z,85.66
2023-04-01T16:25:01.026Z,86.09
2023-04-01T16:27:42.364Z,86.18
2023-04-01T16:30:33.516Z,85.94
2023-04-01T16:33:36.466Z,86.12
2023-04-01T16:36:20.716Z,85.73
2023-04-01T16:39:44.936Z,85.90
2023-04-01T16:42:27.254Z,85.75
2023-04-01T16:45:20.605Z,85.69
2023-04-01T16:48:02.262Z,85.38
2023-04-01T16:50:49.923Z,85.16
2023-04-01T16:53:20.356Z,85.08
2023-04-01T16:56:06.209Z,85.24
2023-04-01T16:58:55.985Z,85.29
2023-04-01T17:01:32.460Z,84.99
2023-04-01T17:04:18.211Z,85.20
2023-04-01T17:06:59.963Z,85.12
2023-04-01T17:09:46.086Z,84.66
2023-04-01T17:12:27.853Z,84.58
2023-04-01T17:15:21.388Z,84.76
2023-04-01T17:18:02.361Z,84.94
2023-04-01T17:20:56.216Z,85.04
2023-04-01T17:23:47.014Z,85.37
2023-04-01T17:26:47.114Z,85.63
2023-04-01T17:29:45.463Z,85.40
2023-04-01T17:33:02.461Z,85.76
2023-04-01T17:35:32.160Z,85.59
2023-04-01T17:38:22.877Z,85.86
2023-04-01T17:41:11.002Z,86.06
2023-04-01T17:43:50.666Z,85.83
2023-04-01T17:46:31.475Z,85.86
2023-04-01T17:49:26.442Z,86.09
2023-04-01T17:52:46.473Z,85.87
2023-04-01T17:56:08.632Z,86.45
2023-04-01T17:59:00.127Z,86.24
2023-04-01T18:02:10.528Z,86.00
2023-04-01T18:04:54.642Z,86.08
2023-04-01T18:07:22.445Z,85.93
2023-04-01T18:10:05.924Z,86.31
2023-04-01T18:13:05.494Z,86.45
2023-04-01T18:16:00.598Z,86.44
2023-04-01T18:19:05.234Z,86.61
2023-04-01T18:21:47.871Z,86.36
2023-04-01T18:24:56.535Z,86.76
2023-04-01T18:27:32.765Z,87.15
2023-04-01T18:30:20.139Z,87.08
2023-04-01T18:32:59.884Z,86.94
2023-04-01T18:36:04.301Z,87.07
2023-04-01T18:38:51.214Z,87.16
2023-04-01T18:41:43.568Z,87.14
2023-04-01T18:44:35.723Z,87.07
2023-04-01T18:47:28.527Z,86.87
2023-04-01T18:50:08.636Z,86.83
2023-04-01T18:52:45.186Z,86.77
2023-04-01T18:55:48.671Z,86.81
2023-04-01T18:58:25.901Z,86.74
2023-04-01T19:01:10.103Z,86.99
2023-04-01T19:03:48.498Z,86.97
2023-04-01T19:06:28.556Z,86.85
2023-04-01T19:09:01.976Z,86.98
2023-04-01T19:11:51.490Z,86.79
2023-04-01T19:14:46.358Z,86.74
2023-04-01T19:17:40.259Z,86.63
2023-04-01T19:20:25.649Z,86.57
2023-04-01T19:23:22.234Z,86.64
2023-04-01T19:25:56.810Z,86.99
2023-04-01T19:28:47.586Z,86.68
2023-04-01T19:31:53.590Z,86.79
2023-04-01T19:34:54.425Z,86.73
2023-04-01T19:37:30.704Z,86.82
2023-04-01T19:40:20.329Z,86.71
2023-04-01T19:43:03.260Z,86.70
2023-04-01T19:45:42.880Z,86.67
2023-04-01T19:48:40.570Z,86.49
2023-04-01T19:51:39.480Z,86.46
2023-04-01T19:54:41.620Z,86.17
2023-04-01T19:57:47.960Z,86.29
2023-04-01T20:00:42.801Z,86.44
2023-04-01T20:03:23.536Z,86.45
2023-04-01T20:06:19.692Z,86.46
2023-04-01T20:09:05.708Z,86.50
2023-04-01T20:11:45.792Z,86.44
2023-04-01T20:14:48.378Z,86.52
2023-04-01T20:17:39.667Z,86.42
2023-04-01T20:20:11.066Z,86.47
2023-04-01T20:22:47.933Z,86.46
2023-04-01T20:25:31.694Z,86.68
2023-04-01T20:28:14.722Z,86.72
2023-04-01T20:31:26.215Z,86.78
2023-04-01T20:34:16.024Z,87.35
2023-04-01T20:37:22.264Z,87.12
2023-04-01T20:40:44.363Z,86.95
2023-04-01T20:43:31.192Z,87.12
2023-04-01T20:46:21.560Z,87.02
2023-04-01T20:49:14.574Z,86.88
2023-04-01T20:51:58.068Z,86.79
2023-04-01T20:54:54.204Z,86.73
2023-04-01T20:57:34.053Z,86.59
2023-04-01T21:00:32.601Z,86.49
2023-04-01T21:03:21.618Z,86.45
2023-04-01T21:06:16.171Z,86.39
2023-04-01T21:08:58.973Z,86.36
2023-04-01T21:11:48.844Z,86.36
2023-04-01T21:14:54.698Z,86.30
2023-04-01T21:17:43.319Z,86.20
2023-04-01T21:20:38.334Z,86.37
2023-04-01T21:23:06.373Z,86.48
2023-04-01T21:25:40.490Z,86.74
2023-04-01T21:28:08.346Z,86.77
2023-04-01T21:31:14.417Z,86.87
2023-04-01T21:33:53.978Z,86.83
2023-04-01T21:36:41.493Z,86.86
2023-04-01T21:39:34.446Z,86.88
2023-04-01T21:42:19.797Z,86.80
2023-04-01T21:45:14.823Z,86.84
2023-04-01T21:48:20.942Z,86.74
2023-04-01T21:50:53.410Z,86.82
2023-04-01T21:53:54.891Z,86.79
2023-04-01T21:56:41.443Z,86.83
2023-04-01T21:59:43.502Z,87.08
2023-04-01T22:02:12.201Z,87.32
2023-04-01T22:04:53.543Z,87.35
2023-04-01T22:07:27.620Z,87.35
2023-04-01T22:10:17.191Z,87.28
2023-04-01T22:13:02.392Z,87.20
2023-04-01T22:15:53.990Z,87.12
2023-04-01T22:18:46.820Z,87.00
2023-04-01T22:21:41.780Z,87.10
2023-04-01T22:24:18.072Z,87.09
2023-04-01T22:27:02.156Z,87.07
2023-04-01T22:29:43.020Z,87.17
2023-04-01T22:32:40.870Z,87.33
2023-04-01T22:35:39.761Z,87.39
2023-04-01T22:38:20.096Z,87.59
2023-04-01T22:41:29.256Z,87.66
2023-04-01T22:43:59.213Z,87.68
2023-04-01T22:46:45.041Z,87.45
2023-04-01T22:49:18.690Z,87.38
2023-04-01T22:51:56.132Z,87.46
2023-04-01T22:54:33.827Z,87.71
2023-04-01T22:57:33.018Z,88.00
2023-04-01T23:00:10.863Z,87.82
2023-04-01T23:03:03.712Z,87.81
2023-04-01T23:05:36.873Z,87.53
2023-04-01T23:08:47.049Z,87.77
2023-04-01T23:11:38.327Z,87.66
2023-04-01T23:14:30.438Z,87.77
2023-04-01T23:17:17.777Z,88.34
2023-04-01T23:20:22.882Z,88.07
2023-04-01T23:23:04.358Z,87.75
2023-04-01T23:25:46.952Z,87.48
2023-04-01T23:28:36.172Z,87.49
2023-04-01T23:31:04.213Z,87.29
2023-04-01T23:33:33.692Z,87.43
2023-04-01T23:36:14.914Z,87.58
2023-04-01T23:38:48.858Z,87.33
2023-04-01T23:41:32.459Z,87.26
2023-04-01T23:44:13.780Z,87.27
2023-04-01T23:46:46.664Z,87.17
2023-04-01T23:49:31.622Z,87.28
2023-04-01T23:52:25.870Z,87.13
2023-04-01T23:55:14.165Z,87.25
2023-04-01T23:57:42.237Z,87.27
